createdAt,value
2018-01-10T00:05:11.030Z,99070.73
2018-01-10T00:11:14.561Z,99061.61
2018-01-10T00:17:18.342Z,99066.13
2018-01-10T00:23:21.909Z,99065.71
2018-01-10T00:29:25.990Z,99064.63
2018-01-10T00:35:29.462Z,99059.59
2018-01-10T00:41:33.013Z,99064.88
2018-01-10T00:47:37.257Z,99047.51
2018-01-10T00:53:40.871Z,99051.48
2018-01-10T00:59:45.218Z,99053.05
2018-01-10T01:05:48.683Z,99062.69
2018-01-10T01:11:52.275Z,99067.42
2018-01-10T01:17:56.086Z,99074.62
2018-01-10T01:23:59.592Z,99076.25
2018-01-10T01:30:03.049Z,99077.93
2018-01-10T01:36:06.722Z,99067.34
2018-01-10T01:42:10.193Z,99071.72
2018-01-10T01:48:13.698Z,99071.37
2018-01-10T01:54:18.043Z,99065.74
2018-01-10T02:00:21.910Z,99064.02
2018-01-10T02:06:27.073Z,99062.47
2018-01-10T02:12:30.706Z,99040.31
2018-01-10T02:18:34.357Z,99031.94
2018-01-10T02:24:37.935Z,99022.26
2018-01-10T02:30:42.231Z,99023.53
2018-01-10T02:36:45.910Z,99016.69
2018-01-10T02:42:49.442Z,99020.92
2018-01-10T02:48:52.972Z,99019.25
2018-01-10T02:54:57.087Z,99010.45
2018-01-10T03:01:00.769Z,99016.28
2018-01-10T03:07:05.408Z,99015.95
2018-01-10T03:13:09.037Z,99019.83
2018-01-10T03:19:12.787Z,99016.33
2018-01-10T03:25:16.486Z,99020.22
2018-01-10T03:31:19.910Z,99013.44
2018-01-10T03:37:23.474Z,99010.77
2018-01-10T03:43:27.228Z,99011.13
2018-01-10T03:49:30.708Z,99000.22
2018-01-10T03:55:34.517Z,98998.79
2018-01-10T04:01:38.987Z,99004.75
2018-01-10T04:07:43.330Z,99002.23
2018-01-10T04:13:46.953Z,98998.42
2018-01-10T04:19:50.433Z,98989.25
2018-01-10T04:25:54.164Z,98993.67
2018-01-10T04:31:58.334Z,99003.70
2018-01-10T04:38:02.198Z,99007.89
2018-01-10T04:44:05.747Z,98999.36
2018-01-10T04:50:09.434Z,99006.34
2018-01-10T04:56:13.168Z,99000.16
2018-01-10T05:02:16.621Z,98991.08
2018-01-10T05:08:21.075Z,98990.44
2018-01-10T05:14:25.660Z,98986.55
2018-01-10T05:20:29.591Z,98988.55
2018-01-10T05:26:34.430Z,98998.84
2018-01-10T05:32:37.908Z,98986.73
2018-01-10T05:38:41.401Z,98991.95
2018-01-10T05:44:44.865Z,98984.56
2018-01-10T05:50:48.393Z,98979.92
2018-01-10T05:56:52.640Z,98980.70
2018-01-10T06:02:56.741Z,98989.45
2018-01-10T06:09:00.370Z,98990.89
2018-01-10T06:15:05.446Z,98991.27
2018-01-10T06:21:08.938Z,98987.12
2018-01-10T06:27:12.462Z,98988.95
2018-01-10T06:33:16.067Z,98986.75
2018-01-10T06:39:19.540Z,98996.63
2018-01-10T06:45:23.091Z,98990.76
2018-01-10T06:51:26.853Z,98983.05
2018-01-10T06:57:30.389Z,98974.29
2018-01-10T07:03:33.987Z,98983.16
2018-01-10T07:09:37.588Z,98984.97
2018-01-10T07:15:42.006Z,98976.28
2018-01-10T07:21:45.551Z,98974.72
2018-01-10T07:27:49.049Z,98976.19
2018-01-10T07:33:52.623Z,98976.59
2018-01-10T07:52:56.274Z,98986.13
2018-01-10T07:58:59.772Z,98987.70
2018-01-10T08:05:03.760Z,98995.84
2018-01-10T08:11:07.229Z,98994.18
2018-01-10T08:17:10.657Z,99007.05
2018-01-10T08:23:14.114Z,99005.77
2018-01-10T08:29:18.506Z,99001.30
2018-01-10T08:35:21.998Z,99004.58
2018-01-10T08:41:25.565Z,98998.62
2018-01-10T08:47:29.171Z,98989.42
2018-01-10T08:53:32.671Z,98994.74
2018-01-10T08:59:36.172Z,98995.53
2018-01-10T09:05:39.629Z,99008.75
2018-01-10T09:11:43.059Z,99005.01
2018-01-10T09:17:47.311Z,99019.54
2018-01-10T09:23:50.791Z,99016.83
2018-01-10T09:29:55.433Z,99018.59
2018-01-10T09:35:59.284Z,99016.30
2018-01-10T09:42:02.859Z,99027.47
2018-01-10T09:48:06.445Z,99019.23
2018-01-10T09:54:10.666Z,99015.16
2018-01-10T10:00:14.194Z,99013.92
2018-01-10T10:06:17.665Z,99016.94
2018-01-10T10:12:21.164Z,99006.64
2018-01-10T10:18:24.720Z,99001.17
2018-01-10T10:24:29.730Z,98993.31
2018-01-10T10:30:34.104Z,98983.72
2018-01-10T10:36:38.348Z,98981.05
2018-01-10T10:42:41.945Z,98976.02
2018-01-10T10:48:46.150Z,98973.06
2018-01-10T10:54:49.678Z,98961.74
2018-01-10T11:00:53.144Z,98962.17
2018-01-10T11:06:56.688Z,98961.66
2018-01-10T11:13:00.370Z,98959.62
2018-01-10T11:19:03.894Z,98948.09
2018-01-10T11:25:07.463Z,98936.02
2018-01-10T11:31:10.943Z,98924.70
2018-01-10T11:37:14.439Z,98918.52
2018-01-10T11:43:18.662Z,98906.57
2018-01-10T11:49:22.336Z,98906.63
2018-01-10T11:55:26.703Z,98904.26
2018-01-10T12:01:30.259Z,98899.80
2018-01-10T12:07:33.818Z,98899.83
2018-01-10T12:13:37.298Z,98900.31
2018-01-10T12:19:41.636Z,98898.11
2018-01-10T12:25:45.232Z,98904.57
2018-01-10T12:31:48.761Z,98898.91
2018-01-10T12:37:52.366Z,98892.28
2018-01-10T12:43:56.492Z,98887.92
2018-01-10T12:49:59.990Z,98887.06
2018-01-10T12:56:03.495Z,98882.41
2018-01-10T13:02:06.967Z,98881.59
2018-01-10T13:08:10.431Z,98884.62
2018-01-10T13:14:14.870Z,98888.36
2018-01-10T13:20:18.368Z,98886.13
2018-01-10T13:26:21.824Z,98887.00
2018-01-10T13:32:25.808Z,98887.94
2018-01-10T13:38:29.640Z,98877.66
2018-01-10T13:44:33.854Z,98887.70
2018-01-10T13:50:37.361Z,98891.58
2018-01-10T13:56:41.597Z,98903.84
2018-01-10T14:02:45.073Z,98905.52
2018-01-10T14:08:48.670Z,98910.94
2018-01-10T14:14:52.196Z,98917.81
2018-01-10T14:20:56.432Z,98921.78
2018-01-10T14:27:00.609Z,98921.58
2018-01-10T14:33:04.067Z,98929.00
2018-01-10T14:39:07.724Z,98933.59
2018-01-10T14:45:11.224Z,98941.03
2018-01-10T14:51:14.679Z,98947.25
2018-01-10T14:57:18.152Z,98952.16
2018-01-10T15:03:21.640Z,98952.69
2018-01-10T15:09:26.489Z,98951.45
2018-01-10T15:15:30.369Z,98959.11
2018-01-10T15:21:33.949Z,98963.13
2018-01-10T15:27:37.468Z,98957.79
2018-01-10T15:33:40.920Z,98962.89
2018-01-10T15:39:44.398Z,98974.17
2018-01-10T15:45:47.831Z,98970.73
2018-01-10T15:51:51.428Z,98965.20
2018-01-10T15:57:56.095Z,98969.23
2018-01-10T16:03:59.555Z,98967.58
2018-01-10T16:10:03.002Z,98970.34
2018-01-10T16:16:06.500Z,98967.56
2018-01-10T16:22:10.086Z,98970.53
2018-01-10T16:28:13.569Z,98970.11
2018-01-10T16:34:17.014Z,98965.45
2018-01-10T16:40:20.559Z,98962.39
2018-01-10T16:46:24.013Z,98962.98
2018-01-10T16:52:27.606Z,98976.11
2018-01-10T16:58:31.962Z,98972.36
2018-01-10T17:04:35.433Z,98973.69
2018-01-10T17:10:39.653Z,98975.34
2018-01-10T17:16:43.093Z,98988.00
2018-01-10T17:22:46.590Z,98981.95
2018-01-10T17:28:50.265Z,98980.35
2018-01-10T17:34:54.832Z,98981.91
2018-01-10T17:40:58.536Z,98980.91
2018-01-10T17:47:01.995Z,98987.30
2018-01-10T17:53:05.490Z,98998.73
2018-01-10T17:59:08.948Z,98999.50
2018-01-10T18:05:12.630Z,99006.26
2018-01-10T18:11:16.835Z,99005.45
2018-01-10T18:17:20.332Z,99011.56
2018-01-10T18:23:24.068Z,99011.03
2018-01-10T18:29:27.751Z,99015.30
2018-01-10T18:35:31.264Z,99016.91
2018-01-10T18:41:34.687Z,99014.91
2018-01-10T18:47:38.918Z,99015.86
2018-01-10T18:53:42.487Z,99015.33
2018-01-10T18:59:46.003Z,99020.09
2018-01-10T19:05:49.478Z,99021.82
2018-01-10T19:11:52.987Z,99019.56
2018-01-10T19:17:56.594Z,99022.87
2018-01-10T19:24:00.139Z,99015.36
2018-01-10T19:30:03.678Z,99019.20
2018-01-10T19:36:07.125Z,99012.39
2018-01-10T19:42:10.645Z,99022.75
2018-01-10T19:48:14.925Z,99022.42
2018-01-10T19:54:19.121Z,99026.37
2018-01-10T20:00:22.614Z,99035.55
2018-01-10T20:06:26.878Z,99033.25
2018-01-10T20:12:30.322Z,99041.50
2018-01-10T20:18:33.917Z,99043.45
2018-01-10T20:24:38.156Z,99041.85
2018-01-10T20:30:41.631Z,99046.41
2018-01-10T20:36:45.093Z,99044.23
2018-01-10T20:42:49.358Z,99050.22
2018-01-10T20:48:52.797Z,99050.44
2018-01-10T20:54:56.282Z,99038.58
2018-01-10T21:00:59.900Z,99042.53
2018-01-10T21:07:03.534Z,99039.75
2018-01-10T21:13:07.864Z,99058.18
2018-01-10T21:19:12.095Z,99054.15
2018-01-10T21:25:15.582Z,99052.42
2018-01-10T21:31:19.143Z,99057.56
2018-01-10T21:37:23.355Z,99054.10
2018-01-10T21:43:26.864Z,99060.46
2018-01-10T21:49:31.086Z,99063.23
2018-01-10T21:55:34.546Z,99073.29
2018-01-10T22:01:38.042Z,99085.44
2018-01-10T22:07:42.314Z,99080.69
2018-01-10T22:13:46.524Z,99080.77
2018-01-10T22:19:50.040Z,99078.89
2018-01-10T22:25:54.434Z,99089.73
2018-01-10T22:31:57.986Z,99098.28
2018-01-10T22:38:01.441Z,99092.04
2018-01-10T22:44:04.891Z,99092.55
2018-01-10T22:50:08.417Z,99089.60
2018-01-10T22:56:11.843Z,99090.93
2018-01-10T23:02:16.231Z,99088.91
2018-01-10T23:08:20.802Z,99091.35
2018-01-10T23:14:24.371Z,99087.43
2018-01-10T23:20:28.407Z,99090.17
2018-01-10T23:26:32.147Z,99091.08
2018-01-10T23:32:36.390Z,99086.23
2018-01-10T23:38:40.613Z,99088.89
2018-01-10T23:44:44.050Z,99091.16
2018-01-10T23:50:47.542Z,99089.09
2018-01-10T23:56:51.499Z,99087.47
